sensor_id;sensor_type;location;lat;lon;timestamp;P1;durP1;ratioP1;P2;durP2;ratioP2
317;SDS011;146;53.448;10.228;2023-11-21T00:01:24;13.93;;;10.37;;
317;SDS011;146;53.448;10.228;2023-11-21T00:03:52;13.73;;;10.43;;
317;SDS011;146;53.448;10.228;2023-11-21T00:06:20;17.17;;;10.63;;
317;SDS011;146;53.448;10.228;2023-11-21T00:08:47;17.00;;;10.10;;
317;SDS011;146;53.448;10.228;2023-11-21T00:11:13;14.17;;;10.23;;
317;SDS011;146;53.448;10.228;2023-11-21T00:17:03;12.60;;;10.70;;
317;SDS011;146;53.448;10.228;2023-11-21T00:19:31;16.07;;;10.33;;
317;SDS011;146;53.448;10.228;2023-11-21T00:21:58;10.60;;;8.97;;
317;SDS011;146;53.448;10.228;2023-11-21T00:24:25;9.40;;;7.30;;
317;SDS011;146;53.448;10.228;2023-11-21T00:26:52;8.70;;;7.07;;
317;SDS011;146;53.448;10.228;2023-11-21T00:29:19;8.60;;;7.80;;
317;SDS011;146;53.448;10.228;2023-11-21T00:31:45;9.10;;;7.23;;
317;SDS011;146;53.448;10.228;2023-11-21T00:34:12;8.20;;;6.90;;
317;SDS011;146;53.448;10.228;2023-11-21T00:36:40;9.13;;;7.30;;
317;SDS011;146;53.448;10.228;2023-11-21T00:39:07;8.63;;;7.83;;
317;SDS011;146;53.448;10.228;2023-11-21T00:41:34;10.40;;;7.50;;
317;SDS011;146;53.448;10.228;2023-11-21T00:44:01;9.23;;;7.97;;
317;SDS011;146;53.448;10.228;2023-11-21T00:46:28;9.90;;;8.90;;
317;SDS011;146;53.448;10.228;2023-11-21T00:48:55;8.90;;;8.00;;
317;SDS011;146;53.448;10.228;2023-11-21T00:51:22;10.40;;;9.30;;
317;SDS011;146;53.448;10.228;2023-11-21T00:53:51;11.73;;;9.10;;
317;SDS011;146;53.448;10.228;2023-11-21T00:56:18;11.23;;;10.15;;
317;SDS011;146;53.448;10.228;2023-11-21T00:58:45;12.77;;;11.45;;
317;SDS011;146;53.448;10.228;2023-11-21T01:01:15;13.27;;;11.93;;
317;SDS011;146;53.448;10.228;2023-11-21T01:03:41;12.40;;;11.18;;
317;SDS011;146;53.448;10.228;2023-11-21T01:06:08;13.03;;;10.73;;
317;SDS011;146;53.448;10.228;2023-11-21T01:08:35;13.80;;;10.07;;
317;SDS011;146;53.448;10.228;2023-11-21T01:11:03;11.37;;;10.07;;
317;SDS011;146;53.448;10.228;2023-11-21T01:13:32;11.63;;;10.50;;
317;SDS011;146;53.448;10.228;2023-11-21T01:16:01;11.43;;;10.43;;
317;SDS011;146;53.448;10.228;2023-11-21T01:18:28;12.63;;;11.20;;
317;SDS011;146;53.448;10.228;2023-11-21T01:20:55;12.75;;;11.45;;
317;SDS011;146;53.448;10.228;2023-11-21T01:23:22;12.73;;;11.40;;
317;SDS011;146;53.448;10.228;2023-11-21T01:25:49;10.90;;;9.90;;
317;SDS011;146;53.448;10.228;2023-11-21T01:28:18;12.37;;;11.07;;
317;SDS011;146;53.448;10.228;2023-11-21T01:30:45;11.17;;;9.50;;
317;SDS011;146;53.448;10.228;2023-11-21T01:33:12;11.20;;;10.10;;
317;SDS011;146;53.448;10.228;2023-11-21T01:35:40;10.57;;;9.57;;
317;SDS011;146;53.448;10.228;2023-11-21T01:38:07;10.47;;;9.57;;
317;SDS011;146;53.448;10.228;2023-11-21T01:40:34;9.47;;;8.50;;
317;SDS011;146;53.448;10.228;2023-11-21T01:43:01;10.40;;;9.40;;
317;SDS011;146;53.448;10.228;2023-11-21T01:45:30;12.53;;;11.23;;
317;SDS011;146;53.448;10.228;2023-11-21T01:47:58;9.63;;;8.80;;
317;SDS011;146;53.448;10.228;2023-11-21T01:50:26;9.67;;;8.77;;
317;SDS011;146;53.448;10.228;2023-11-21T01:52:54;11.23;;;10.23;;
317;SDS011;146;53.448;10.228;2023-11-21T01:55:21;10.00;;;9.20;;
317;SDS011;146;53.448;10.228;2023-11-21T01:57:48;11.23;;;10.20;;
317;SDS011;146;53.448;10.228;2023-11-21T02:00:16;10.63;;;9.63;;
317;SDS011;146;53.448;10.228;2023-11-21T02:02:46;10.40;;;9.40;;
317;SDS011;146;53.448;10.228;2023-11-21T02:05:14;9.93;;;8.70;;
317;SDS011;146;53.448;10.228;2023-11-21T02:07:43;10.17;;;9.27;;
317;SDS011;146;53.448;10.228;2023-11-21T02:10:12;9.47;;;8.60;;
317;SDS011;146;53.448;10.228;2023-11-21T02:12:40;9.50;;;8.70;;
317;SDS011;146;53.448;10.228;2023-11-21T02:15:08;8.60;;;7.80;;
317;SDS011;146;53.448;10.228;2023-11-21T02:17:40;8.17;;;7.43;;
317;SDS011;146;53.448;10.228;2023-11-21T02:20:10;9.10;;;8.20;;
317;SDS011;146;53.448;10.228;2023-11-21T02:22:40;8.30;;;7.43;;
317;SDS011;146;53.448;10.228;2023-11-21T02:25:09;8.13;;;7.43;;
317;SDS011;146;53.448;10.228;2023-11-21T02:27:36;8.80;;;8.10;;
317;SDS011;146;53.448;10.228;2023-11-21T02:30:03;8.68;;;7.88;;
317;SDS011;146;53.448;10.228;2023-11-21T02:32:32;6.93;;;6.32;;
317;SDS011;146;53.448;10.228;2023-11-21T02:34:59;6.55;;;6.05;;
317;SDS011;146;53.448;10.228;2023-11-21T02:37:27;7.57;;;6.97;;
317;SDS011;146;53.448;10.228;2023-11-21T02:39:54;8.10;;;7.40;;
317;SDS011;146;53.448;10.228;2023-11-21T02:42:22;8.60;;;7.00;;
317;SDS011;146;53.448;10.228;2023-11-21T02:44:49;8.03;;;7.33;;
317;SDS011;146;53.448;10.228;2023-11-21T02:47:16;8.70;;;7.67;;
317;SDS011;146;53.448;10.228;2023-11-21T02:49:42;7.27;;;6.67;;
317;SDS011;146;53.448;10.228;2023-11-21T02:52:09;6.57;;;6.03;;
317;SDS011;146;53.448;10.228;2023-11-21T02:54:36;8.30;;;7.37;;
317;SDS011;146;53.448;10.228;2023-11-21T02:57:03;6.87;;;6.37;;
317;SDS011;146;53.448;10.228;2023-11-21T02:59:32;8.13;;;7.43;;
317;SDS011;146;53.448;10.228;2023-11-21T03:01:59;8.85;;;7.22;;
317;SDS011;146;53.448;10.228;2023-11-21T03:04:25;8.43;;;7.63;;
317;SDS011;146;53.448;10.228;2023-11-21T03:06:52;8.50;;;7.80;;
317;SDS011;146;53.448;10.228;2023-11-21T03:09:19;8.33;;;7.50;;
317;SDS011;146;53.448;10.228;2023-11-21T03:11:46;7.35;;;6.68;;
317;SDS011;146;53.448;10.228;2023-11-21T03:14:12;7.93;;;7.23;;
317;SDS011;146;53.448;10.228;2023-11-21T03:16:41;7.60;;;6.90;;
317;SDS011;146;53.448;10.228;2023-11-21T03:19:09;8.03;;;7.40;;
317;SDS011;146;53.448;10.228;2023-11-21T03:21:36;8.00;;;7.20;;
317;SDS011;146;53.448;10.228;2023-11-21T03:24:03;7.90;;;7.10;;
317;SDS011;146;53.448;10.228;2023-11-21T03:26:31;7.80;;;7.20;;
317;SDS011;146;53.448;10.228;2023-11-21T03:28:58;7.30;;;6.70;;
317;SDS011;146;53.448;10.228;2023-11-21T03:31:24;7.87;;;7.27;;
317;SDS011;146;53.448;10.228;2023-11-21T03:33:53;8.63;;;7.83;;
317;SDS011;146;53.448;10.228;2023-11-21T03:36:19;7.93;;;7.23;;
317;SDS011;146;53.448;10.228;2023-11-21T03:38:47;8.53;;;7.83;;
317;SDS011;146;53.448;10.228;2023-11-21T03:41:14;8.23;;;7.53;;
317;SDS011;146;53.448;10.228;2023-11-21T03:43:41;7.87;;;7.17;;
317;SDS011;146;53.448;10.228;2023-11-21T03:46:07;8.63;;;7.80;;
317;SDS011;146;53.448;10.228;2023-11-21T03:48:35;7.83;;;7.03;;
317;SDS011;146;53.448;10.228;2023-11-21T03:51:03;8.63;;;7.83;;
317;SDS011;146;53.448;10.228;2023-11-21T03:53:30;9.70;;;8.90;;
317;SDS011;146;53.448;10.228;2023-11-21T03:55:57;8.67;;;7.80;;
317;SDS011;146;53.448;10.228;2023-11-21T03:58:24;8.65;;;7.22;;
317;SDS011;146;53.448;10.228;2023-11-21T04:00:50;8.17;;;7.47;;
317;SDS011;146;53.448;10.228;2023-11-21T04:03:17;9.10;;;7.70;;
317;SDS011;146;53.448;10.228;2023-11-21T04:05:44;8.27;;;7.60;;
317;SDS011;146;53.448;10.228;2023-11-21T04:08:13;8.00;;;7.23;;
317;SDS011;146;53.448;10.228;2023-11-21T04:10:40;11.97;;;7.80;;
317;SDS011;146;53.448;10.228;2023-11-21T04:13:07;9.90;;;9.00;;
317;SDS011;146;53.448;10.228;2023-11-21T04:15:34;8.50;;;7.70;;
317;SDS011;146;53.448;10.228;2023-11-21T04:18:00;8.83;;;8.03;;
317;SDS011;146;53.448;10.228;2023-11-21T04:20:28;9.17;;;8.37;;
317;SDS011;146;53.448;10.228;2023-11-21T04:22:54;9.87;;;9.07;;
317;SDS011;146;53.448;10.228;2023-11-21T04:25:22;8.50;;;7.63;;
317;SDS011;146;53.448;10.228;2023-11-21T04:27:50;9.60;;;8.10;;
317;SDS011;146;53.448;10.228;2023-11-21T04:30:16;9.47;;;8.57;;
317;SDS011;146;53.448;10.228;2023-11-21T04:32:43;9.35;;;8.55;;
317;SDS011;146;53.448;10.228;2023-11-21T04:35:10;8.43;;;7.67;;
317;SDS011;146;53.448;10.228;2023-11-21T04:37:37;8.63;;;7.83;;
317;SDS011;146;53.448;10.228;2023-11-21T04:40:05;8.60;;;7.80;;
317;SDS011;146;53.448;10.228;2023-11-21T04:42:35;8.57;;;7.77;;
317;SDS011;146;53.448;10.228;2023-11-21T04:45:02;8.57;;;7.60;;
317;SDS011;146;53.448;10.228;2023-11-21T04:47:34;9.25;;;8.50;;
317;SDS011;146;53.448;10.228;2023-11-21T04:50:01;9.73;;;8.80;;
317;SDS011;146;53.448;10.228;2023-11-21T04:52:29;9.70;;;8.80;;
317;SDS011;146;53.448;10.228;2023-11-21T04:54:56;9.53;;;8.70;;
317;SDS011;146;53.448;10.228;2023-11-21T04:57:23;10.43;;;8.80;;
317;SDS011;146;53.448;10.228;2023-11-21T04:59:52;11.90;;;9.40;;
317;SDS011;146;53.448;10.228;2023-11-21T05:02:18;8.73;;;7.93;;
317;SDS011;146;53.448;10.228;2023-11-21T05:04:46;9.97;;;9.03;;
317;SDS011;146;53.448;10.228;2023-11-21T05:07:13;9.80;;;8.47;;
317;SDS011;146;53.448;10.228;2023-11-21T05:09:41;9.47;;;8.47;;
317;SDS011;146;53.448;10.228;2023-11-21T05:12:09;9.63;;;8.63;;
317;SDS011;146;53.448;10.228;2023-11-21T05:14:36;9.97;;;8.97;;
317;SDS011;146;53.448;10.228;2023-11-21T05:17:05;9.83;;;8.97;;
317;SDS011;146;53.448;10.228;2023-11-21T05:19:33;10.90;;;8.90;;
317;SDS011;146;53.448;10.228;2023-11-21T05:22:01;8.70;;;7.90;;
317;SDS011;146;53.448;10.228;2023-11-21T05:24:28;10.20;;;9.23;;
317;SDS011;146;53.448;10.228;2023-11-21T05:26:54;10.57;;;9.43;;
317;SDS011;146;53.448;10.228;2023-11-21T05:29:22;10.13;;;8.90;;
317;SDS011;146;53.448;10.228;2023-11-21T05:31:50;9.37;;;8.50;;
317;SDS011;146;53.448;10.228;2023-11-21T05:34:19;9.50;;;8.37;;
317;SDS011;146;53.448;10.228;2023-11-21T05:36:49;9.60;;;8.80;;
317;SDS011;146;53.448;10.228;2023-11-21T05:39:15;9.63;;;8.63;;
317;SDS011;146;53.448;10.228;2023-11-21T05:41:43;9.57;;;8.77;;
317;SDS011;146;53.448;10.228;2023-11-21T05:44:10;8.88;;;8.07;;
317;SDS011;146;53.448;10.228;2023-11-21T05:46:39;9.50;;;8.70;;
317;SDS011;146;53.448;10.228;2023-11-21T05:49:08;10.83;;;9.67;;
317;SDS011;146;53.448;10.228;2023-11-21T05:51:36;9.50;;;8.60;;
317;SDS011;146;53.448;10.228;2023-11-21T05:54:03;9.80;;;9.00;;
317;SDS011;146;53.448;10.228;2023-11-21T05:56:30;9.40;;;8.60;;
317;SDS011;146;53.448;10.228;2023-11-21T05:58:57;10.57;;;9.10;;
317;SDS011;146;53.448;10.228;2023-11-21T06:01:24;9.80;;;8.87;;
317;SDS011;146;53.448;10.228;2023-11-21T06:03:53;10.67;;;9.53;;
317;SDS011;146;53.448;10.228;2023-11-21T06:06:20;9.67;;;8.87;;
317;SDS011;146;53.448;10.228;2023-11-21T06:08:49;9.20;;;8.30;;
317;SDS011;146;53.448;10.228;2023-11-21T06:11:15;9.33;;;8.53;;
317;SDS011;146;53.448;10.228;2023-11-21T06:13:42;9.90;;;8.87;;
317;SDS011;146;53.448;10.228;2023-11-21T06:16:10;11.17;;;10.10;;
317;SDS011;146;53.448;10.228;2023-11-21T06:18:38;9.60;;;8.80;;
317;SDS011;146;53.448;10.228;2023-11-21T06:21:05;10.20;;;9.30;;
317;SDS011;146;53.448;10.228;2023-11-21T06:23:35;9.43;;;8.63;;
317;SDS011;146;53.448;10.228;2023-11-21T06:26:03;10.27;;;9.37;;
317;SDS011;146;53.448;10.228;2023-11-21T06:28:31;10.20;;;9.30;;
317;SDS011;146;53.448;10.228;2023-11-21T06:30:57;10.77;;;9.35;;
317;SDS011;146;53.448;10.228;2023-11-21T06:33:29;10.27;;;9.37;;
317;SDS011;146;53.448;10.228;2023-11-21T06:35:56;10.37;;;9.37;;
317;SDS011;146;53.448;10.228;2023-11-21T06:38:23;10.90;;;9.90;;
317;SDS011;146;53.448;10.228;2023-11-21T06:40:49;10.00;;;9.10;;
317;SDS011;146;53.448;10.228;2023-11-21T06:43:17;10.87;;;9.77;;
317;SDS011;146;53.448;10.228;2023-11-21T06:45:44;10.53;;;9.57;;
317;SDS011;146;53.448;10.228;2023-11-21T06:48:11;10.20;;;9.20;;
317;SDS011;146;53.448;10.228;2023-11-21T06:50:37;11.30;;;10.23;;
317;SDS011;146;53.448;10.228;2023-11-21T06:53:04;10.27;;;9.40;;
317;SDS011;146;53.448;10.228;2023-11-21T06:55:32;10.33;;;9.33;;
317;SDS011;146;53.448;10.228;2023-11-21T06:57:59;10.67;;;9.80;;
317;SDS011;146;53.448;10.228;2023-11-21T07:00:28;10.53;;;9.53;;
317;SDS011;146;53.448;10.228;2023-11-21T07:02:54;10.50;;;9.60;;
317;SDS011;146;53.448;10.228;2023-11-21T07:05:22;10.70;;;9.57;;
317;SDS011;146;53.448;10.228;2023-11-21T07:07:49;11.13;;;10.03;;
317;SDS011;146;53.448;10.228;2023-11-21T07:10:15;10.90;;;10.00;;
317;SDS011;146;53.448;10.228;2023-11-21T07:12:43;9.93;;;9.03;;
317;SDS011;146;53.448;10.228;2023-11-21T07:15:09;10.93;;;9.80;;
317;SDS011;146;53.448;10.228;2023-11-21T07:17:37;10.73;;;9.70;;
317;SDS011;146;53.448;10.228;2023-11-21T07:20:05;11.23;;;10.13;;
317;SDS011;146;53.448;10.228;2023-11-21T07:22:33;14.20;;;10.80;;
317;SDS011;146;53.448;10.228;2023-11-21T07:25:00;9.80;;;8.97;;
317;SDS011;146;53.448;10.228;2023-11-21T07:27:27;11.30;;;10.20;;
317;SDS011;146;53.448;10.228;2023-11-21T07:29:54;10.57;;;9.63;;
317;SDS011;146;53.448;10.228;2023-11-21T07:32:20;9.50;;;8.70;;
317;SDS011;146;53.448;10.228;2023-11-21T07:34:48;9.90;;;9.00;;
317;SDS011;146;53.448;10.228;2023-11-21T07:37:15;11.90;;;10.87;;
317;SDS011;146;53.448;10.228;2023-11-21T07:39:42;12.40;;;11.10;;
317;SDS011;146;53.448;10.228;2023-11-21T07:42:09;11.37;;;10.27;;
317;SDS011;146;53.448;10.228;2023-11-21T07:44:36;10.07;;;9.18;;
317;SDS011;146;53.448;10.228;2023-11-21T07:47:03;11.60;;;9.50;;
317;SDS011;146;53.448;10.228;2023-11-21T07:49:30;11.90;;;10.80;;
317;SDS011;146;53.448;10.228;2023-11-21T07:51:58;12.53;;;11.30;;
317;SDS011;146;53.448;10.228;2023-11-21T07:54:25;11.73;;;10.70;;
317;SDS011;146;53.448;10.228;2023-11-21T07:56:52;11.77;;;10.73;;
317;SDS011;146;53.448;10.228;2023-11-21T07:59:19;11.23;;;10.20;;
317;SDS011;146;53.448;10.228;2023-11-21T08:01:46;11.63;;;10.53;;
317;SDS011;146;53.448;10.228;2023-11-21T08:04:13;11.40;;;10.40;;
317;SDS011;146;53.448;10.228;2023-11-21T08:06:40;11.63;;;10.53;;
317;SDS011;146;53.448;10.228;2023-11-21T08:09:08;11.20;;;10.17;;
317;SDS011;146;53.448;10.228;2023-11-21T08:11:37;9.93;;;9.03;;
317;SDS011;146;53.448;10.228;2023-11-21T08:14:04;10.77;;;9.80;;
317;SDS011;146;53.448;10.228;2023-11-21T08:16:37;12.43;;;10.50;;
317;SDS011;146;53.448;10.228;2023-11-21T08:19:04;10.90;;;9.90;;
317;SDS011;146;53.448;10.228;2023-11-21T08:21:31;10.37;;;9.37;;
317;SDS011;146;53.448;10.228;2023-11-21T08:23:58;11.70;;;10.60;;
317;SDS011;146;53.448;10.228;2023-11-21T08:26:26;10.57;;;9.67;;
317;SDS011;146;53.448;10.228;2023-11-21T08:28:53;11.73;;;10.30;;
317;SDS011;146;53.448;10.228;2023-11-21T08:31:23;10.23;;;8.97;;
317;SDS011;146;53.448;10.228;2023-11-21T08:33:51;10.10;;;9.20;;
317;SDS011;146;53.448;10.228;2023-11-21T08:36:20;10.67;;;9.67;;
317;SDS011;146;53.448;10.228;2023-11-21T08:38:48;10.38;;;9.48;;
317;SDS011;146;53.448;10.228;2023-11-21T08:41:15;9.47;;;8.67;;
317;SDS011;146;53.448;10.228;2023-11-21T08:43:43;9.97;;;9.07;;
317;SDS011;146;53.448;10.228;2023-11-21T08:46:09;10.37;;;9.37;;
317;SDS011;146;53.448;10.228;2023-11-21T08:48:36;9.60;;;8.60;;
317;SDS011;146;53.448;10.228;2023-11-21T08:51:04;8.93;;;8.20;;
317;SDS011;146;53.448;10.228;2023-11-21T08:53:31;9.88;;;8.88;;
317;SDS011;146;53.448;10.228;2023-11-21T08:55:58;8.87;;;8.07;;
317;SDS011;146;53.448;10.228;2023-11-21T08:58:25;9.10;;;7.77;;
317;SDS011;146;53.448;10.228;2023-11-21T09:00:53;9.20;;;8.33;;
317;SDS011;146;53.448;10.228;2023-11-21T09:03:20;8.27;;;7.57;;
317;SDS011;146;53.448;10.228;2023-11-21T09:05:47;9.23;;;7.50;;
317;SDS011;146;53.448;10.228;2023-11-21T09:08:13;8.23;;;7.43;;
317;SDS011;146;53.448;10.228;2023-11-21T09:10:40;8.03;;;7.33;;
317;SDS011;146;53.448;10.228;2023-11-21T09:13:08;8.60;;;7.80;;
317;SDS011;146;53.448;10.228;2023-11-21T09:15:35;7.30;;;6.70;;
317;SDS011;146;53.448;10.228;2023-11-21T09:18:03;7.30;;;6.70;;
317;SDS011;146;53.448;10.228;2023-11-21T09:20:31;7.83;;;7.13;;
317;SDS011;146;53.448;10.228;2023-11-21T09:22:57;7.37;;;6.77;;
317;SDS011;146;53.448;10.228;2023-11-21T09:25:24;6.50;;;5.97;;
317;SDS011;146;53.448;10.228;2023-11-21T09:27:51;7.50;;;6.90;;
317;SDS011;146;53.448;10.228;2023-11-21T09:30:18;6.13;;;5.63;;
317;SDS011;146;53.448;10.228;2023-11-21T09:32:45;6.93;;;6.37;;
317;SDS011;146;53.448;10.228;2023-11-21T09:35:13;5.97;;;5.43;;
317;SDS011;146;53.448;10.228;2023-11-21T09:37:41;5.50;;;5.00;;
317;SDS011;146;53.448;10.228;2023-11-21T09:40:10;6.50;;;5.90;;
317;SDS011;146;53.448;10.228;2023-11-21T09:42:39;5.70;;;5.20;;
317;SDS011;146;53.448;10.228;2023-11-21T09:45:09;5.82;;;5.32;;
317;SDS011;146;53.448;10.228;2023-11-21T09:47:45;6.30;;;5.80;;
317;SDS011;146;53.448;10.228;2023-11-21T09:50:14;6.27;;;5.33;;
317;SDS011;146;53.448;10.228;2023-11-21T09:52:55;6.43;;;5.60;;
317;SDS011;146;53.448;10.228;2023-11-21T09:55:26;6.70;;;6.20;;
317;SDS011;146;53.448;10.228;2023-11-21T09:57:55;6.67;;;5.97;;
317;SDS011;146;53.448;10.228;2023-11-21T10:00:23;6.20;;;5.67;;
317;SDS011;146;53.448;10.228;2023-11-21T10:02:50;5.63;;;5.23;;
317;SDS011;146;53.448;10.228;2023-11-21T10:05:19;6.77;;;6.20;;
317;SDS011;146;53.448;10.228;2023-11-21T10:07:48;5.33;;;4.93;;
317;SDS011;146;53.448;10.228;2023-11-21T10:10:18;5.50;;;5.10;;
317;SDS011;146;53.448;10.228;2023-11-21T10:12:48;6.50;;;5.90;;
317;SDS011;146;53.448;10.228;2023-11-21T10:15:21;7.33;;;5.37;;
317;SDS011;146;53.448;10.228;2023-11-21T10:17:50;5.90;;;5.33;;
317;SDS011;146;53.448;10.228;2023-11-21T10:20:19;5.63;;;5.00;;
317;SDS011;146;53.448;10.228;2023-11-21T10:22:47;9.23;;;6.03;;
317;SDS011;146;53.448;10.228;2023-11-21T10:25:14;5.63;;;5.13;;
317;SDS011;146;53.448;10.228;2023-11-21T10:27:41;5.17;;;4.70;;
317;SDS011;146;53.448;10.228;2023-11-21T10:30:09;5.50;;;4.65;;
317;SDS011;146;53.448;10.228;2023-11-21T10:32:37;5.87;;;5.37;;
317;SDS011;146;53.448;10.228;2023-11-21T10:35:05;5.10;;;4.70;;
317;SDS011;146;53.448;10.228;2023-11-21T10:37:36;5.60;;;5.10;;
317;SDS011;146;53.448;10.228;2023-11-21T10:40:05;5.50;;;5.00;;
317;SDS011;146;53.448;10.228;2023-11-21T10:42:32;4.90;;;4.50;;
317;SDS011;146;53.448;10.228;2023-11-21T10:44:59;5.20;;;4.80;;
317;SDS011;146;53.448;10.228;2023-11-21T10:47:28;5.30;;;4.90;;
317;SDS011;146;53.448;10.228;2023-11-21T10:49:57;4.53;;;4.23;;
317;SDS011;146;53.448;10.228;2023-11-21T10:52:26;4.55;;;4.15;;
317;SDS011;146;53.448;10.228;2023-11-21T10:54:55;5.20;;;4.70;;
317;SDS011;146;53.448;10.228;2023-11-21T10:57:24;5.00;;;4.13;;
317;SDS011;146;53.448;10.228;2023-11-21T10:59:51;4.60;;;4.20;;
317;SDS011;146;53.448;10.228;2023-11-21T11:02:22;4.93;;;4.53;;
317;SDS011;146;53.448;10.228;2023-11-21T11:04:53;4.78;;;4.38;;
317;SDS011;146;53.448;10.228;2023-11-21T11:07:21;4.47;;;4.17;;
317;SDS011;146;53.448;10.228;2023-11-21T11:09:52;4.43;;;4.07;;
317;SDS011;146;53.448;10.228;2023-11-21T11:12:23;4.57;;;4.17;;
317;SDS011;146;53.448;10.228;2023-11-21T11:14:50;4.40;;;4.10;;
317;SDS011;146;53.448;10.228;2023-11-21T11:17:18;4.90;;;4.50;;
317;SDS011;146;53.448;10.228;2023-11-21T11:19:46;4.57;;;4.17;;
317;SDS011;146;53.448;10.228;2023-11-21T11:22:17;3.90;;;3.70;;
317;SDS011;146;53.448;10.228;2023-11-21T11:25:06;4.30;;;4.00;;
317;SDS011;146;53.448;10.228;2023-11-21T11:27:59;5.50;;;4.90;;
317;SDS011;146;53.448;10.228;2023-11-21T11:30:37;3.80;;;3.60;;
317;SDS011;146;53.448;10.228;2023-11-21T11:33:13;3.90;;;3.60;;
317;SDS011;146;53.448;10.228;2023-11-21T11:35:52;4.37;;;4.07;;
317;SDS011;146;53.448;10.228;2023-11-21T11:38:22;4.57;;;4.18;;
317;SDS011;146;53.448;10.228;2023-11-21T11:40:52;4.03;;;3.73;;
317;SDS011;146;53.448;10.228;2023-11-21T11:43:25;3.60;;;3.30;;
317;SDS011;146;53.448;10.228;2023-11-21T11:45:55;4.80;;;4.40;;
317;SDS011;146;53.448;10.228;2023-11-21T11:48:24;5.00;;;4.50;;
317;SDS011;146;53.448;10.228;2023-11-21T11:51:03;4.50;;;4.07;;
317;SDS011;146;53.448;10.228;2023-11-21T11:53:37;6.97;;;4.60;;
317;SDS011;146;53.448;10.228;2023-11-21T11:56:25;6.03;;;4.80;;
317;SDS011;146;53.448;10.228;2023-11-21T11:58:57;6.97;;;4.65;;
317;SDS011;146;53.448;10.228;2023-11-21T12:01:25;7.63;;;5.00;;
317;SDS011;146;53.448;10.228;2023-11-21T12:06:56;5.00;;;4.50;;
317;SDS011;146;53.448;10.228;2023-11-21T12:09:27;4.00;;;3.70;;
317;SDS011;146;53.448;10.228;2023-11-21T12:11:55;4.67;;;4.27;;
317;SDS011;146;53.448;10.228;2023-11-21T12:14:23;4.13;;;3.83;;
317;SDS011;146;53.448;10.228;2023-11-21T12:16:51;4.67;;;4.37;;
317;SDS011;146;53.448;10.228;2023-11-21T12:19:18;6.03;;;4.20;;
317;SDS011;146;53.448;10.228;2023-11-21T12:21:46;4.90;;;4.47;;
317;SDS011;146;53.448;10.228;2023-11-21T12:24:13;4.93;;;4.53;;
317;SDS011;146;53.448;10.228;2023-11-21T12:26:41;4.53;;;4.20;;
317;SDS011;146;53.448;10.228;2023-11-21T12:29:09;4.50;;;4.10;;
317;SDS011;146;53.448;10.228;2023-11-21T12:31:37;4.67;;;4.37;;
317;SDS011;146;53.448;10.228;2023-11-21T12:34:05;4.53;;;4.20;;
317;SDS011;146;53.448;10.228;2023-11-21T12:36:32;4.03;;;3.73;;
317;SDS011;146;53.448;10.228;2023-11-21T12:38:59;4.47;;;4.17;;
317;SDS011;146;53.448;10.228;2023-11-21T12:41:27;5.05;;;4.60;;
317;SDS011;146;53.448;10.228;2023-11-21T12:43:55;4.20;;;3.90;;
317;SDS011;146;53.448;10.228;2023-11-21T12:46:22;4.33;;;4.03;;
317;SDS011;146;53.448;10.228;2023-11-21T12:48:52;5.30;;;4.80;;
317;SDS011;146;53.448;10.228;2023-11-21T12:51:19;6.00;;;5.03;;
317;SDS011;146;53.448;10.228;2023-11-21T12:53:47;4.93;;;4.47;;
317;SDS011;146;53.448;10.228;2023-11-21T12:56:15;5.83;;;4.30;;
317;SDS011;146;53.448;10.228;2023-11-21T12:58:43;4.90;;;4.50;;
317;SDS011;146;53.448;10.228;2023-11-21T13:01:12;4.43;;;4.10;;
317;SDS011;146;53.448;10.228;2023-11-21T13:03:44;4.97;;;4.57;;
317;SDS011;146;53.448;10.228;2023-11-21T13:06:15;4.57;;;4.27;;
317;SDS011;146;53.448;10.228;2023-11-21T13:08:43;5.73;;;5.20;;
317;SDS011;146;53.448;10.228;2023-11-21T13:11:11;5.22;;;4.82;;
317;SDS011;146;53.448;10.228;2023-11-21T13:13:40;5.63;;;5.20;;
317;SDS011;146;53.448;10.228;2023-11-21T13:16:07;4.40;;;4.10;;
317;SDS011;146;53.448;10.228;2023-11-21T13:18:35;5.93;;;5.40;;
317;SDS011;146;53.448;10.228;2023-11-21T13:21:03;5.43;;;4.93;;
317;SDS011;146;53.448;10.228;2023-11-21T13:23:36;5.45;;;4.95;;
317;SDS011;146;53.448;10.228;2023-11-21T13:26:04;4.20;;;3.80;;
317;SDS011;146;53.448;10.228;2023-11-21T13:28:31;4.70;;;4.40;;
317;SDS011;146;53.448;10.228;2023-11-21T13:30:59;5.17;;;4.37;;
317;SDS011;146;53.448;10.228;2023-11-21T13:33:29;4.40;;;4.10;;
317;SDS011;146;53.448;10.228;2023-11-21T13:35:58;5.30;;;4.80;;
317;SDS011;146;53.448;10.228;2023-11-21T13:38:26;4.43;;;4.13;;
317;SDS011;146;53.448;10.228;2023-11-21T13:40:59;4.88;;;4.47;;
317;SDS011;146;53.448;10.228;2023-11-21T13:43:26;5.05;;;4.60;;
317;SDS011;146;53.448;10.228;2023-11-21T13:45:54;4.07;;;3.77;;
317;SDS011;146;53.448;10.228;2023-11-21T13:48:25;4.60;;;4.20;;
317;SDS011;146;53.448;10.228;2023-11-21T13:50:59;4.80;;;4.50;;
317;SDS011;146;53.448;10.228;2023-11-21T13:53:35;4.83;;;4.50;;
317;SDS011;146;53.448;10.228;2023-11-21T13:56:05;5.33;;;4.53;;
317;SDS011;146;53.448;10.228;2023-11-21T13:58:33;4.73;;;4.43;;
317;SDS011;146;53.448;10.228;2023-11-21T14:01:09;5.20;;;4.70;;
317;SDS011;146;53.448;10.228;2023-11-21T14:03:50;4.83;;;4.43;;
317;SDS011;146;53.448;10.228;2023-11-21T14:06:23;4.67;;;4.37;;
317;SDS011;146;53.448;10.228;2023-11-21T14:08:57;4.23;;;3.93;;
317;SDS011;146;53.448;10.228;2023-11-21T14:11:29;5.27;;;4.77;;
317;SDS011;146;53.448;10.228;2023-11-21T14:13:55;4.60;;;4.03;;
317;SDS011;146;53.448;10.228;2023-11-21T14:16:24;6.40;;;5.10;;
317;SDS011;146;53.448;10.228;2023-11-21T14:18:51;4.43;;;4.13;;
317;SDS011;146;53.448;10.228;2023-11-21T14:21:23;4.97;;;4.53;;
317;SDS011;146;53.448;10.228;2023-11-21T14:23:51;5.83;;;4.87;;
317;SDS011;146;53.448;10.228;2023-11-21T14:26:19;4.60;;;4.30;;
317;SDS011;146;53.448;10.228;2023-11-21T14:28:47;4.90;;;4.50;;
317;SDS011;146;53.448;10.228;2023-11-21T14:31:14;4.63;;;4.27;;
317;SDS011;146;53.448;10.228;2023-11-21T14:33:42;5.47;;;4.07;;
317;SDS011;146;53.448;10.228;2023-11-21T14:36:10;4.90;;;4.50;;
317;SDS011;146;53.448;10.228;2023-11-21T14:38:37;4.85;;;4.35;;
317;SDS011;146;53.448;10.228;2023-11-21T14:41:04;5.47;;;4.93;;
317;SDS011;146;53.448;10.228;2023-11-21T14:43:33;4.97;;;4.50;;
317;SDS011;146;53.448;10.228;2023-11-21T14:46:02;4.72;;;4.32;;
317;SDS011;146;53.448;10.228;2023-11-21T14:48:31;4.63;;;4.22;;
317;SDS011;146;53.448;10.228;2023-11-21T14:51:07;5.13;;;4.70;;
317;SDS011;146;53.448;10.228;2023-11-21T14:53:55;4.43;;;4.03;;
317;SDS011;146;53.448;10.228;2023-11-21T14:56:25;4.70;;;4.40;;
317;SDS011;146;53.448;10.228;2023-11-21T14:58:56;4.63;;;4.23;;
317;SDS011;146;53.448;10.228;2023-11-21T15:01:24;3.63;;;3.37;;
317;SDS011;146;53.448;10.228;2023-11-21T15:04:08;4.82;;;4.43;;
317;SDS011;146;53.448;10.228;2023-11-21T15:06:39;4.17;;;3.87;;
317;SDS011;146;53.448;10.228;2023-11-21T15:09:08;3.70;;;3.40;;
317;SDS011;146;53.448;10.228;2023-11-21T15:11:48;3.60;;;3.30;;
317;SDS011;146;53.448;10.228;2023-11-21T15:14:19;3.77;;;3.57;;
317;SDS011;146;53.448;10.228;2023-11-21T15:16:51;5.20;;;3.43;;
317;SDS011;146;53.448;10.228;2023-11-21T15:19:24;4.05;;;3.75;;
317;SDS011;146;53.448;10.228;2023-11-21T15:21:53;3.77;;;3.47;;
317;SDS011;146;53.448;10.228;2023-11-21T15:24:23;3.50;;;3.20;;
317;SDS011;146;53.448;10.228;2023-11-21T15:26:50;3.30;;;3.10;;
317;SDS011;146;53.448;10.228;2023-11-21T15:29:17;3.53;;;3.00;;
317;SDS011;146;53.448;10.228;2023-11-21T15:31:45;3.67;;;3.38;;
317;SDS011;146;53.448;10.228;2023-11-21T15:34:15;3.57;;;3.30;;
317;SDS011;146;53.448;10.228;2023-11-21T15:36:42;3.10;;;2.90;;
317;SDS011;146;53.448;10.228;2023-11-21T15:39:09;2.77;;;2.57;;